createdAt,value
2022-11-03T00:02:23.821Z,10.93
2022-11-03T00:04:53.388Z,11.01
2022-11-03T00:07:22.973Z,11.01
2022-11-03T00:09:52.399Z,10.99
2022-11-03T00:12:21.628Z,10.97
2022-11-03T00:14:50.842Z,10.99
2022-11-03T00:17:20.099Z,10.88
2022-11-03T00:19:49.321Z,10.99
2022-11-03T00:22:18.942Z,10.91
2022-11-03T00:24:48.167Z,10.85
2022-11-03T00:27:17.436Z,10.85
2022-11-03T00:29:46.733Z,10.86
2022-11-03T00:32:15.993Z,10.80
2022-11-03T00:34:45.200Z,10.72
2022-11-03T00:37:14.448Z,10.73
2022-11-03T00:39:43.697Z,10.77
2022-11-03T00:42:12.913Z,10.73
2022-11-03T00:44:42.246Z,10.75
2022-11-03T00:47:11.481Z,10.73
2022-11-03T00:49:40.689Z,10.72
2022-11-03T00:52:10.235Z,10.71
2022-11-03T00:54:39.500Z,10.69
2022-11-03T00:57:08.893Z,10.58
2022-11-03T00:59:38.336Z,10.69
2022-11-03T01:02:07.820Z,10.61
2022-11-03T01:04:55.438Z,10.61
2022-11-03T01:07:24.854Z,10.62
2022-11-03T01:09:54.201Z,10.56
2022-11-03T01:12:23.565Z,10.50
2022-11-03T01:14:54.027Z,10.49
2022-11-03T01:17:25.516Z,10.43
2022-11-03T01:19:55.423Z,10.37
2022-11-03T01:22:25.703Z,10.40
2022-11-03T01:24:54.970Z,10.41
2022-11-03T01:27:24.218Z,10.50
2022-11-03T01:29:53.518Z,10.52
2022-11-03T01:32:22.748Z,10.43
2022-11-03T01:34:52.017Z,10.46
2022-11-03T01:37:21.249Z,10.42
2022-11-03T01:39:50.751Z,10.46
2022-11-03T01:42:20.178Z,10.41
2022-11-03T01:44:50.202Z,10.43
2022-11-03T01:47:33.700Z,10.37
2022-11-03T01:50:17.792Z,10.38
2022-11-03T01:52:52.552Z,10.35
2022-11-03T01:55:24.561Z,10.36
2022-11-03T01:58:03.107Z,10.35
2022-11-03T02:00:32.707Z,10.38
2022-11-03T02:03:02.754Z,10.35
2022-11-03T02:05:32.049Z,10.35
2022-11-03T02:08:19.612Z,10.30
2022-11-03T02:10:49.745Z,10.38
2022-11-03T02:13:24.935Z,10.34
2022-11-03T02:15:56.512Z,10.41
2022-11-03T02:18:28.704Z,10.45
2022-11-03T02:21:22.509Z,10.40
2022-11-03T02:24:06.934Z,10.48
2022-11-03T02:26:36.975Z,10.47
2022-11-03T02:29:06.218Z,10.49
2022-11-03T02:31:41.438Z,10.46
2022-11-03T02:34:16.685Z,10.46
2022-11-03T02:37:07.214Z,10.41
2022-11-03T02:39:42.351Z,10.44
2022-11-03T02:42:13.008Z,10.42
2022-11-03T02:44:43.495Z,10.44
2022-11-03T02:47:14.241Z,10.40
2022-11-03T02:49:51.287Z,10.47
2022-11-03T02:52:38.941Z,10.46
2022-11-03T02:55:27.968Z,10.51
2022-11-03T02:58:11.891Z,10.49
2022-11-03T03:00:44.382Z,10.44
2022-11-03T03:03:16.819Z,10.49
2022-11-03T03:05:47.018Z,10.53
2022-11-03T03:08:16.651Z,10.53
2022-11-03T03:10:47.427Z,10.56
2022-11-03T03:13:18.672Z,10.65
2022-11-03T03:16:07.600Z,10.59
2022-11-03T03:18:43.400Z,10.65
2022-11-03T03:21:15.787Z,10.64
2022-11-03T03:23:54.291Z,10.62
2022-11-03T03:26:26.195Z,10.60
2022-11-03T03:28:58.248Z,10.62
2022-11-03T03:31:29.149Z,10.59
2022-11-03T03:34:04.824Z,10.63
2022-11-03T03:36:31.348Z,10.69
2022-11-03T03:39:03.529Z,10.70
2022-11-03T03:41:33.501Z,10.71
2022-11-03T03:44:05.746Z,10.71
2022-11-03T03:46:38.112Z,10.75
2022-11-03T03:49:08.188Z,10.72
2022-11-03T03:51:38.055Z,10.72
2022-11-03T03:54:07.371Z,10.70
2022-11-03T03:56:44.952Z,10.69
2022-11-03T03:59:14.257Z,10.71
2022-11-03T04:01:43.795Z,10.69
2022-11-03T04:04:13.149Z,10.70
2022-11-03T04:06:42.421Z,10.70
2022-11-03T04:09:11.635Z,10.71
2022-11-03T04:12:00.850Z,10.72
2022-11-03T04:14:48.590Z,10.73
2022-11-03T04:17:38.741Z,10.74
2022-11-03T04:20:28.941Z,10.67
2022-11-03T04:22:58.143Z,10.66
2022-11-03T04:25:27.452Z,10.61
2022-11-03T04:27:56.667Z,10.59
2022-11-03T04:30:26.347Z,10.56
2022-11-03T04:32:56.144Z,10.55
2022-11-03T04:35:27.496Z,10.61
2022-11-03T04:38:11.627Z,10.53
2022-11-03T04:40:49.050Z,10.57
2022-11-03T04:43:19.481Z,10.58
2022-11-03T04:45:49.857Z,10.60
2022-11-03T04:48:26.084Z,10.67
2022-11-03T04:50:58.898Z,10.63
2022-11-03T04:53:31.551Z,10.70
2022-11-03T04:56:04.480Z,10.70
2022-11-03T04:58:35.937Z,10.77
2022-11-03T05:01:07.119Z,10.80
2022-11-03T05:03:37.624Z,10.76
2022-11-03T05:06:18.956Z,10.81
2022-11-03T05:08:57.441Z,10.87
2022-11-03T05:11:40.659Z,10.81
2022-11-03T05:14:24.290Z,10.81
2022-11-03T05:16:55.070Z,10.83
2022-11-03T05:19:33.597Z,10.80
2022-11-03T05:22:03.901Z,10.87
2022-11-03T05:24:33.967Z,10.91
2022-11-03T05:27:03.262Z,10.93
2022-11-03T05:29:40.089Z,10.92
2022-11-03T05:32:24.674Z,10.98
2022-11-03T05:34:56.537Z,10.99
2022-11-03T05:37:31.679Z,11.04
2022-11-03T05:40:05.062Z,11.01
2022-11-03T05:42:37.504Z,11.00
2022-11-03T05:45:18.519Z,11.03
2022-11-03T05:47:47.822Z,11.09
2022-11-03T05:50:26.189Z,11.14
2022-11-03T05:53:00.194Z,11.11
2022-11-03T05:55:32.474Z,11.06
2022-11-03T05:58:07.982Z,11.07
2022-11-03T06:00:48.462Z,11.08
2022-11-03T06:03:29.155Z,11.06
2022-11-03T06:05:59.582Z,11.09
2022-11-03T06:08:41.530Z,11.12
2022-11-03T06:11:10.957Z,11.10
2022-11-03T06:13:40.519Z,11.08
2022-11-03T06:16:29.295Z,11.06
2022-11-03T06:19:00.250Z,11.05
2022-11-03T06:21:29.462Z,11.08
2022-11-03T06:24:00.471Z,11.12
2022-11-03T06:26:30.152Z,11.14
2022-11-03T06:29:00.952Z,11.20
2022-11-03T06:31:32.721Z,11.15
2022-11-03T06:34:02.994Z,11.13
2022-11-03T06:36:36.159Z,11.12
2022-11-03T06:39:10.873Z,11.15
2022-11-03T06:41:40.075Z,11.15
2022-11-03T06:44:24.905Z,11.17
2022-11-03T06:47:02.532Z,11.12
2022-11-03T06:49:36.234Z,11.21
2022-11-03T06:52:23.457Z,11.20
2022-11-03T06:54:58.946Z,11.19
2022-11-03T06:57:28.686Z,11.20
2022-11-03T07:00:19.970Z,11.21
2022-11-03T07:02:59.913Z,11.23
2022-11-03T07:05:31.186Z,11.22
2022-11-03T07:08:03.391Z,11.22
2022-11-03T07:10:34.314Z,11.27
2022-11-03T07:13:07.402Z,11.29
2022-11-03T07:15:39.767Z,11.27
2022-11-03T07:18:24.049Z,11.25
2022-11-03T07:20:54.094Z,11.31
2022-11-03T07:23:26.299Z,11.29
2022-11-03T07:25:57.988Z,11.27
2022-11-03T07:28:36.556Z,11.32
2022-11-03T07:31:16.377Z,11.40
2022-11-03T07:33:45.937Z,11.37
2022-11-03T07:36:21.004Z,11.34
2022-11-03T07:38:52.807Z,11.41
2022-11-03T07:41:28.200Z,11.47
2022-11-03T07:43:58.708Z,11.39
2022-11-03T07:46:28.381Z,11.41
2022-11-03T07:49:02.660Z,11.44
2022-11-03T07:51:38.343Z,11.48
2022-11-03T07:54:16.715Z,11.48
2022-11-03T07:56:59.722Z,11.52
2022-11-03T07:59:36.631Z,11.51
2022-11-03T08:02:25.566Z,11.59
2022-11-03T08:04:55.247Z,11.61
2022-11-03T08:07:24.442Z,11.68
2022-11-03T08:09:53.997Z,11.69
2022-11-03T08:12:23.370Z,11.67
2022-11-03T08:14:52.825Z,11.73
2022-11-03T08:17:22.161Z,11.77
2022-11-03T08:19:51.379Z,11.75
2022-11-03T08:22:20.664Z,11.84
2022-11-03T08:24:50.141Z,11.87
2022-11-03T08:27:19.590Z,11.88
2022-11-03T08:29:49.206Z,11.91
2022-11-03T08:32:18.415Z,11.95
2022-11-03T08:34:47.774Z,12.01
2022-11-03T08:37:19.948Z,12.01
2022-11-03T08:39:49.273Z,12.05
2022-11-03T08:42:18.611Z,12.09
2022-11-03T08:44:48.020Z,12.11
2022-11-03T08:47:17.211Z,12.09
2022-11-03T08:49:46.964Z,12.22
2022-11-03T08:52:16.524Z,12.20
2022-11-03T08:54:45.813Z,12.22
2022-11-03T08:57:16.035Z,12.21
2022-11-03T08:59:45.625Z,12.24
2022-11-03T09:02:14.826Z,12.28
2022-11-03T09:04:44.296Z,12.34
2022-11-03T09:07:13.792Z,12.42
2022-11-03T09:12:14.180Z,12.40
2022-11-03T09:14:43.415Z,12.43
2022-11-03T09:17:12.615Z,12.54
2022-11-03T09:19:42.513Z,12.56
2022-11-03T09:22:11.741Z,12.59
2022-11-03T09:24:40.956Z,12.66
2022-11-03T09:27:10.191Z,12.62
2022-11-03T09:30:06.614Z,12.69
2022-11-03T09:32:10.794Z,12.72
2022-11-03T09:34:40.169Z,12.74
2022-11-03T09:37:09.715Z,12.68
2022-11-03T09:39:39.077Z,12.63
2022-11-03T09:42:08.618Z,12.62
2022-11-03T09:44:37.994Z,12.68
2022-11-03T09:47:07.653Z,12.55
2022-11-03T09:49:37.875Z,12.57
2022-11-03T09:52:07.179Z,12.59
2022-11-03T09:54:36.524Z,12.64
2022-11-03T09:57:11.649Z,12.65
2022-11-03T09:59:43.894Z,12.63
2022-11-03T10:02:18.987Z,12.63
2022-11-03T10:04:48.481Z,12.62
2022-11-03T10:07:17.872Z,12.59
2022-11-03T10:09:50.017Z,12.65
2022-11-03T10:12:19.383Z,12.72
2022-11-03T10:14:49.396Z,12.64
2022-11-03T10:17:27.076Z,12.74
2022-11-03T10:19:58.049Z,12.73
2022-11-03T10:22:27.262Z,12.72
2022-11-03T10:25:27.970Z,12.81
2022-11-03T10:28:18.701Z,12.84
2022-11-03T10:31:14.449Z,13.03
2022-11-03T10:33:37.375Z,12.99
2022-11-03T10:36:18.826Z,13.00
2022-11-03T10:38:48.760Z,13.01
2022-11-03T10:41:29.790Z,13.08
2022-11-03T10:44:17.186Z,13.05
2022-11-03T10:47:03.680Z,13.04
2022-11-03T10:49:39.279Z,13.12
2022-11-03T10:52:24.905Z,13.19
2022-11-03T10:54:55.752Z,13.23
2022-11-03T10:57:26.071Z,13.31
2022-11-03T10:59:55.655Z,13.47
2022-11-03T11:02:31.858Z,13.36
2022-11-03T11:05:02.967Z,13.45
2022-11-03T11:07:35.054Z,13.45
2022-11-03T11:10:16.332Z,13.48
2022-11-03T11:13:23.774Z,13.53
2022-11-03T11:15:55.242Z,13.57
2022-11-03T11:18:34.453Z,13.68
2022-11-03T11:21:19.274Z,13.88
2022-11-03T11:23:49.612Z,13.98
2022-11-03T11:26:35.690Z,14.01
2022-11-03T11:29:15.766Z,14.10
2022-11-03T11:32:26.659Z,13.98
2022-11-03T11:34:55.975Z,14.09
2022-11-03T11:37:28.358Z,14.18
2022-11-03T11:39:57.750Z,14.42
2022-11-03T11:42:27.232Z,14.54
2022-11-03T11:44:58.511Z,14.46
2022-11-03T11:47:36.528Z,14.55
2022-11-03T11:50:11.822Z,14.69
2022-11-03T11:52:49.965Z,14.44
2022-11-03T11:55:31.954Z,14.39
2022-11-03T11:58:03.691Z,14.32
2022-11-03T12:00:35.120Z,14.32
2022-11-03T12:03:06.506Z,14.60
2022-11-03T12:05:36.645Z,14.54
2022-11-03T12:08:20.161Z,14.66
2022-11-03T12:10:57.099Z,15.19
2022-11-03T12:13:37.195Z,15.35
2022-11-03T12:16:06.976Z,15.57
2022-11-03T12:18:50.237Z,15.64
2022-11-03T12:21:17.685Z,15.55
2022-11-03T12:23:48.151Z,15.42
2022-11-03T12:26:19.684Z,15.45
2022-11-03T12:28:48.921Z,15.52
2022-11-03T12:31:18.265Z,15.57
2022-11-03T12:33:47.567Z,15.67
2022-11-03T12:36:17.619Z,15.71
2022-11-03T12:38:46.854Z,15.41
2022-11-03T12:41:22.221Z,15.39
2022-11-03T12:43:53.682Z,15.49
2022-11-03T12:46:23.691Z,15.60
2022-11-03T12:48:52.984Z,15.44
2022-11-03T12:51:23.748Z,15.33
2022-11-03T12:53:53.232Z,15.14
2022-11-03T12:56:22.803Z,15.11
2022-11-03T12:58:52.059Z,15.04
2022-11-03T13:01:22.275Z,14.96
2022-11-03T13:03:51.644Z,14.87
2022-11-03T13:06:21.125Z,14.78
2022-11-03T13:08:53.173Z,14.84
2022-11-03T13:11:39.517Z,14.74
2022-11-03T13:14:08.828Z,14.82
2022-11-03T13:16:38.539Z,14.81
2022-11-03T13:19:09.573Z,14.92
2022-11-03T13:21:39.176Z,14.91
2022-11-03T13:24:08.765Z,14.89
2022-11-03T13:26:38.273Z,14.75
2022-11-03T13:29:07.784Z,14.71
2022-11-03T13:31:37.160Z,14.78
2022-11-03T13:34:06.504Z,14.69
2022-11-03T13:36:36.004Z,14.58
2022-11-03T13:39:05.594Z,14.51
2022-11-03T13:41:35.034Z,14.37
2022-11-03T13:44:04.519Z,14.37
2022-11-03T13:46:33.898Z,14.33
2022-11-03T13:51:34.595Z,14.28
2022-11-03T14:01:37.857Z,14.18
2022-11-03T14:06:39.240Z,14.12
2022-11-03T14:09:08.742Z,14.13
2022-11-03T14:11:56.146Z,14.06
2022-11-03T14:14:25.496Z,14.04
2022-11-03T14:16:55.071Z,14.05
2022-11-03T14:19:33.365Z,14.07
2022-11-03T14:21:55.488Z,14.03
2022-11-03T14:24:24.793Z,14.06
2022-11-03T14:26:54.404Z,14.06
2022-11-03T14:29:23.652Z,13.97
2022-11-03T14:31:53.000Z,13.95
2022-11-03T14:34:22.491Z,13.87
2022-11-03T14:36:51.913Z,13.87
2022-11-03T14:39:21.226Z,13.82
2022-11-03T14:42:05.790Z,13.77
2022-11-03T14:44:38.426Z,13.77
2022-11-03T14:47:13.798Z,13.73
2022-11-03T14:49:43.190Z,13.67
2022-11-03T14:52:12.584Z,13.65
2022-11-03T14:54:41.943Z,13.64
2022-11-03T14:57:11.442Z,13.61
2022-11-03T14:59:40.942Z,13.53
2022-11-03T15:02:10.674Z,13.49
2022-11-03T15:04:40.119Z,13.41
2022-11-03T15:07:09.398Z,13.37
2022-11-03T15:09:38.744Z,13.29
2022-11-03T15:12:09.794Z,13.24
2022-11-03T15:14:39.027Z,13.19
2022-11-03T15:17:08.480Z,13.20
2022-11-03T15:19:37.735Z,13.10
2022-11-03T15:22:07.084Z,13.07
2022-11-03T15:27:07.598Z,12.83
2022-11-03T15:29:37.660Z,12.69
2022-11-03T15:32:07.115Z,12.65
2022-11-03T15:34:36.462Z,12.62
2022-11-03T15:37:05.756Z,12.57
2022-11-03T15:39:35.228Z,12.57
2022-11-03T15:42:04.587Z,12.54
2022-11-03T15:44:33.818Z,12.51
2022-11-03T15:47:03.293Z,12.52
2022-11-03T15:49:32.545Z,12.50
2022-11-03T15:52:01.917Z,12.47
2022-11-03T15:54:31.124Z,12.45
2022-11-03T15:57:00.570Z,12.46
2022-11-03T15:59:29.972Z,12.42
2022-11-03T16:02:13.782Z,12.42
2022-11-03T16:04:30.251Z,12.36
2022-11-03T16:07:07.851Z,12.33
2022-11-03T16:09:30.738Z,12.28
2022-11-03T16:12:00.818Z,12.24
2022-11-03T16:14:30.433Z,12.20
2022-11-03T16:16:59.962Z,12.10
2022-11-03T16:19:29.415Z,11.94
2022-11-03T16:21:58.824Z,11.74
2022-11-03T16:24:34.729Z,11.64
2022-11-03T16:26:59.100Z,11.50
2022-11-03T16:29:28.671Z,11.37
2022-11-03T16:31:58.134Z,11.34
2022-11-03T16:34:27.607Z,11.25
2022-11-03T16:36:57.225Z,11.20
2022-11-03T16:39:26.754Z,11.14
2022-11-03T16:41:56.110Z,11.07
2022-11-03T16:44:25.643Z,11.03
2022-11-03T16:46:54.889Z,11.00
2022-11-03T16:49:24.197Z,10.96
2022-11-03T16:51:53.762Z,10.88
2022-11-03T16:54:23.075Z,10.87
2022-11-03T16:56:54.890Z,10.83
2022-11-03T16:59:25.185Z,10.81
2022-11-03T17:01:55.572Z,10.79
2022-11-03T17:04:25.109Z,10.74
2022-11-03T17:06:54.624Z,10.74
2022-11-03T17:09:23.862Z,10.74
2022-11-03T17:11:53.150Z,10.71
2022-11-03T17:14:22.582Z,10.68
2022-11-03T17:16:51.947Z,10.64
2022-11-03T17:19:22.197Z,10.64
2022-11-03T17:21:51.420Z,10.66
2022-11-03T17:24:21.014Z,10.65
2022-11-03T17:27:01.984Z,10.60
2022-11-03T17:29:37.026Z,10.58
2022-11-03T17:32:08.591Z,10.56
2022-11-03T17:34:38.996Z,10.56
2022-11-03T17:37:08.431Z,10.55
2022-11-03T17:39:39.172Z,10.55
2022-11-03T17:42:19.277Z,10.52
2022-11-03T17:44:50.545Z,10.52
2022-11-03T17:47:20.785Z,10.49
2022-11-03T17:49:50.819Z,10.49
2022-11-03T17:52:28.913Z,10.52
2022-11-03T17:54:59.738Z,10.49
2022-11-03T17:57:29.885Z,10.49
2022-11-03T18:00:03.216Z,10.48
2022-11-03T18:02:35.789Z,10.50
2022-11-03T18:05:28.787Z,10.50
2022-11-03T18:07:59.624Z,10.46
2022-11-03T18:10:32.210Z,10.48
2022-11-03T18:13:17.139Z,10.52
2022-11-03T18:16:04.472Z,10.49
2022-11-03T18:18:39.529Z,10.51
2022-11-03T18:21:17.412Z,10.51
2022-11-03T18:23:47.028Z,10.48
2022-11-03T18:26:21.727Z,10.48
2022-11-03T18:28:51.492Z,10.50
2022-11-03T18:31:25.998Z,10.50
2022-11-03T18:33:55.280Z,10.49
2022-11-03T18:36:24.735Z,10.49
2022-11-03T18:38:56.472Z,10.45
2022-11-03T18:41:41.050Z,10.51
2022-11-03T18:44:28.933Z,10.48
2022-11-03T18:46:58.890Z,10.51
2022-11-03T18:49:30.243Z,10.55
2022-11-03T18:52:03.974Z,10.56
2022-11-03T18:54:34.682Z,10.56
2022-11-03T18:57:04.916Z,10.56
2022-11-03T18:59:37.431Z,10.54
2022-11-03T19:02:18.436Z,10.52
2022-11-03T19:04:48.162Z,10.55
2022-11-03T19:07:20.547Z,10.59
2022-11-03T19:09:49.938Z,10.56
2022-11-03T19:12:19.833Z,10.51
2022-11-03T19:14:50.155Z,10.45
2022-11-03T19:17:23.533Z,10.45
2022-11-03T19:19:53.733Z,10.45
2022-11-03T19:22:24.495Z,10.46
2022-11-03T19:24:53.706Z,10.46
2022-11-03T19:27:28.823Z,10.43
2022-11-03T19:29:59.731Z,10.41
2022-11-03T19:32:38.165Z,10.43
2022-11-03T19:35:24.934Z,10.43
2022-11-03T19:38:14.696Z,10.43
2022-11-03T19:40:46.016Z,10.46
2022-11-03T19:43:16.078Z,10.49
2022-11-03T19:45:45.394Z,10.49
2022-11-03T19:48:31.081Z,10.49
2022-11-03T19:50:46.139Z,10.52
2022-11-03T19:53:23.824Z,10.55
2022-11-03T19:55:53.675Z,10.56
2022-11-03T19:58:25.455Z,10.58
2022-11-03T20:00:55.182Z,10.54
2022-11-03T20:03:25.520Z,10.55
2022-11-03T20:05:56.679Z,10.53
2022-11-03T20:08:28.467Z,10.54
2022-11-03T20:10:57.920Z,10.52
2022-11-03T20:13:30.522Z,10.53
2022-11-03T20:16:01.555Z,10.53
2022-11-03T20:18:31.174Z,10.46
2022-11-03T20:21:00.669Z,10.44
2022-11-03T20:23:32.433Z,10.53
2022-11-03T20:26:02.571Z,10.44
2022-11-03T20:28:32.433Z,10.37
2022-11-03T20:31:03.558Z,10.45
2022-11-03T20:33:32.986Z,10.39
2022-11-03T20:36:02.863Z,10.35
2022-11-03T20:38:32.659Z,10.36
2022-11-03T20:41:04.506Z,10.27
2022-11-03T20:43:36.655Z,10.26
2022-11-03T20:46:17.937Z,10.23
2022-11-03T20:48:47.154Z,10.24
2022-11-03T20:51:18.808Z,10.18
2022-11-03T20:53:48.581Z,10.13
2022-11-03T20:56:21.511Z,10.13
2022-11-03T20:58:50.742Z,10.18
2022-11-03T21:01:30.101Z,10.09
2022-11-03T21:04:00.835Z,10.06
2022-11-03T21:06:32.059Z,10.07
2022-11-03T21:09:02.199Z,10.07
2022-11-03T21:11:35.310Z,10.03
2022-11-03T21:14:08.030Z,10.01
2022-11-03T21:16:55.432Z,9.99
2022-11-03T21:19:45.176Z,9.97
2022-11-03T21:24:53.609Z,9.99
2022-11-03T21:27:22.837Z,9.98
2022-11-03T21:29:59.442Z,10.00
2022-11-03T21:32:23.419Z,10.00
2022-11-03T21:34:52.883Z,10.02
2022-11-03T21:37:22.309Z,10.01
2022-11-03T21:39:51.810Z,10.01
2022-11-03T21:42:38.987Z,10.03
2022-11-03T21:45:08.883Z,10.07
2022-11-03T21:47:38.098Z,10.09
2022-11-03T21:50:07.776Z,10.03
2022-11-03T21:52:37.005Z,10.03
2022-11-03T21:55:06.816Z,10.00
2022-11-03T21:57:36.115Z,9.99
2022-11-03T22:00:06.197Z,9.97
2022-11-03T22:02:35.677Z,9.95
2022-11-03T22:05:09.688Z,10.02
2022-11-03T22:07:36.391Z,10.00
2022-11-03T22:10:06.770Z,9.96
2022-11-03T22:12:36.116Z,9.98
2022-11-03T22:15:23.475Z,9.99
2022-11-03T22:17:52.750Z,9.97
2022-11-03T22:20:39.996Z,9.93
2022-11-03T22:23:27.125Z,9.86
2022-11-03T22:26:14.279Z,9.83
2022-11-03T22:28:43.461Z,9.79
2022-11-03T22:31:30.640Z,9.80
2022-11-03T22:34:17.679Z,9.80
2022-11-03T22:36:47.083Z,9.76
2022-11-03T22:39:34.082Z,9.79
2022-11-03T22:42:21.545Z,9.80
2022-11-03T22:45:08.408Z,9.73
2022-11-03T22:47:37.780Z,9.69
2022-11-03T22:50:08.412Z,9.65
2022-11-03T22:52:37.956Z,9.66
2022-11-03T22:55:07.490Z,9.68
2022-11-03T22:57:37.012Z,9.64
2022-11-03T23:00:06.534Z,9.69
2022-11-03T23:02:35.846Z,9.67
2022-11-03T23:05:05.747Z,9.67
2022-11-03T23:07:41.086Z,9.65
2022-11-03T23:10:08.214Z,9.64
2022-11-03T23:12:37.584Z,9.68
2022-11-03T23:15:25.666Z,9.68
2022-11-03T23:18:13.362Z,9.69
2022-11-03T23:21:00.183Z,9.71
2022-11-03T23:23:47.373Z,9.73
2022-11-03T23:26:17.629Z,9.72
2022-11-03T23:28:47.028Z,9.67
2022-11-03T23:31:16.838Z,9.56
2022-11-03T23:33:46.395Z,9.39
2022-11-03T23:36:16.795Z,9.26
2022-11-03T23:38:46.789Z,9.20
2022-11-03T23:41:18.625Z,9.04
2022-11-03T23:43:48.117Z,8.83
2022-11-03T23:46:37.823Z,8.67
2022-11-03T23:49:07.553Z,8.52
2022-11-03T23:51:37.812Z,8.45
2022-11-03T23:54:09.510Z,8.34
2022-11-03T23:56:59.456Z,8.34
2022-11-03T23:59:29.886Z,8.32
